Terminal Aerodrome Forecast
Issued by NWS

Home | Current Version | Previous Version | Text Only | Print | Product List | Glossary On
Versions: 1 2 3 4 5 6 7 8 9 10 11 12 13 14 15 16 17 18 19 20 21
000
FTUS43 KABR 281124
TAFPIR
TAF
KPIR 281124Z 2812/2912 30011KT P6SM VCSH OVC080
     FM281500 32014KT P6SM SCT200
     FM290100 VRB05KT P6SM BKN200=

USA.gov is the U.S. government's official web portal to all federal, state and local government web resources and services.